sensor_id;sensor_type;location;lat;lon;timestamp;temperature;humidity
53926;DHT22;39836;52.754;6.866;2023-06-22T00:33:57;19.40;80.20
53926;DHT22;39836;52.754;6.866;2023-06-22T00:36:36;19.40;80.30
53926;DHT22;39836;52.754;6.866;2023-06-22T00:42:49;19.30;80.10
53926;DHT22;39836;52.754;6.866;2023-06-22T00:45:15;19.30;80.00
53926;DHT22;39836;52.754;6.866;2023-06-22T00:47:41;19.20;79.90
53926;DHT22;39836;52.754;6.866;2023-06-22T00:50:11;19.20;80.00
53926;DHT22;39836;52.754;6.866;2023-06-22T00:52:38;19.20;80.00
53926;DHT22;39836;52.754;6.866;2023-06-22T00:55:09;19.10;80.00
53926;DHT22;39836;52.754;6.866;2023-06-22T00:57:34;19.10;80.10
53926;DHT22;39836;52.754;6.866;2023-06-22T01:00:03;19.10;80.10
53926;DHT22;39836;52.754;6.866;2023-06-22T01:02:32;19.00;80.10
53926;DHT22;39836;52.754;6.866;2023-06-22T01:04:58;19.00;80.10
53926;DHT22;39836;52.754;6.866;2023-06-22T01:07:46;18.90;80.10
53926;DHT22;39836;52.754;6.866;2023-06-22T01:10:24;19.20;80.30
53926;DHT22;39836;52.754;6.866;2023-06-22T01:12:58;18.80;80.10
53926;DHT22;39836;52.754;6.866;2023-06-22T09:12:17;24.30;73.90
53926;DHT22;39836;52.754;6.866;2023-06-22T09:19:06;24.50;73.70
53926;DHT22;39836;52.754;6.866;2023-06-22T09:21:32;24.60;73.60
53926;DHT22;39836;52.754;6.866;2023-06-22T09:23:58;24.80;73.70
53926;DHT22;39836;52.754;6.866;2023-06-22T09:26:23;24.90;73.80
53926;DHT22;39836;52.754;6.866;2023-06-22T09:28:49;25.00;73.00
53926;DHT22;39836;52.754;6.866;2023-06-22T09:31:15;24.90;72.90
53926;DHT22;39836;52.754;6.866;2023-06-22T09:33:43;24.90;73.00
53926;DHT22;39836;52.754;6.866;2023-06-22T09:36:08;25.10;73.10
53926;DHT22;39836;52.754;6.866;2023-06-22T09:38:35;25.30;73.30
53926;DHT22;39836;52.754;6.866;2023-06-22T09:41:01;25.50;73.30
53926;DHT22;39836;52.754;6.866;2023-06-22T09:43:27;25.70;73.10
53926;DHT22;39836;52.754;6.866;2023-06-22T09:45:53;25.70;72.80
53926;DHT22;39836;52.754;6.866;2023-06-22T09:48:18;25.70;72.60
53926;DHT22;39836;52.754;6.866;2023-06-22T09:50:44;25.80;72.60
53926;DHT22;39836;52.754;6.866;2023-06-22T09:53:10;25.80;72.50
53926;DHT22;39836;52.754;6.866;2023-06-22T09:55:35;25.90;72.50
53926;DHT22;39836;52.754;6.866;2023-06-22T09:58:01;26.00;72.40
53926;DHT22;39836;52.754;6.866;2023-06-22T10:00:27;26.00;72.40
53926;DHT22;39836;52.754;6.866;2023-06-22T10:02:52;25.90;72.20
53926;DHT22;39836;52.754;6.866;2023-06-22T10:05:18;26.10;72.30
53926;DHT22;39836;52.754;6.866;2023-06-22T10:07:44;26.30;72.60
53926;DHT22;39836;52.754;6.866;2023-06-22T10:10:11;26.50;72.30
53926;DHT22;39836;52.754;6.866;2023-06-22T10:12:40;26.50;72.00
53926;DHT22;39836;52.754;6.866;2023-06-22T10:15:06;26.60;71.90
53926;DHT22;39836;52.754;6.866;2023-06-22T10:17:32;26.70;71.70
53926;DHT22;39836;52.754;6.866;2023-06-22T10:19:58;26.70;71.70
53926;DHT22;39836;52.754;6.866;2023-06-22T10:22:23;26.80;71.60
53926;DHT22;39836;52.754;6.866;2023-06-22T10:24:49;26.90;71.60
53926;DHT22;39836;52.754;6.866;2023-06-22T10:27:15;26.90;71.60
53926;DHT22;39836;52.754;6.866;2023-06-22T10:29:41;26.90;71.40
53926;DHT22;39836;52.754;6.866;2023-06-22T10:32:07;26.80;71.30
53926;DHT22;39836;52.754;6.866;2023-06-22T10:34:33;26.90;71.00
53926;DHT22;39836;52.754;6.866;2023-06-22T10:36:59;27.00;71.10
53926;DHT22;39836;52.754;6.866;2023-06-22T10:39:24;27.00;71.00
53926;DHT22;39836;52.754;6.866;2023-06-22T10:41:50;27.00;70.90
53926;DHT22;39836;52.754;6.866;2023-06-22T10:44:16;27.00;70.70
53926;DHT22;39836;52.754;6.866;2023-06-22T10:46:43;27.00;70.60
53926;DHT22;39836;52.754;6.866;2023-06-22T10:49:08;27.00;70.50
53926;DHT22;39836;52.754;6.866;2023-06-22T10:51:34;27.20;70.80
53926;DHT22;39836;52.754;6.866;2023-06-22T10:54:00;27.40;70.80
53926;DHT22;39836;52.754;6.866;2023-06-22T10:56:25;27.50;70.70
53926;DHT22;39836;52.754;6.866;2023-06-22T10:58:51;27.70;70.80
53926;DHT22;39836;52.754;6.866;2023-06-22T11:01:17;27.80;70.50
53926;DHT22;39836;52.754;6.866;2023-06-22T11:03:42;27.60;69.90
53926;DHT22;39836;52.754;6.866;2023-06-22T11:06:08;27.60;70.00
53926;DHT22;39836;52.754;6.866;2023-06-22T11:08:34;27.60;70.30
53926;DHT22;39836;52.754;6.866;2023-06-22T11:10:59;27.60;70.30
53926;DHT22;39836;52.754;6.866;2023-06-22T11:13:25;27.70;70.30
53926;DHT22;39836;52.754;6.866;2023-06-22T11:15:51;27.60;70.10
53926;DHT22;39836;52.754;6.866;2023-06-22T11:18:16;27.60;70.00
53926;DHT22;39836;52.754;6.866;2023-06-22T11:20:42;27.50;69.80
53926;DHT22;39836;52.754;6.866;2023-06-22T11:23:08;27.50;69.90
53926;DHT22;39836;52.754;6.866;2023-06-22T11:25:34;27.50;70.10
53926;DHT22;39836;52.754;6.866;2023-06-22T11:28:04;27.50;70.20
53926;DHT22;39836;52.754;6.866;2023-06-22T11:30:30;27.50;70.10
53926;DHT22;39836;52.754;6.866;2023-06-22T11:32:58;27.50;69.90
53926;DHT22;39836;52.754;6.866;2023-06-22T11:35:24;27.50;69.70
53926;DHT22;39836;52.754;6.866;2023-06-22T11:37:49;27.40;69.60
53926;DHT22;39836;52.754;6.866;2023-06-22T11:40:15;27.40;69.70
53926;DHT22;39836;52.754;6.866;2023-06-22T11:42:43;27.40;69.70
53926;DHT22;39836;52.754;6.866;2023-06-22T11:45:09;27.40;69.80
53926;DHT22;39836;52.754;6.866;2023-06-22T11:47:35;27.50;69.90
53926;DHT22;39836;52.754;6.866;2023-06-22T11:50:02;27.50;69.60
53926;DHT22;39836;52.754;6.866;2023-06-22T11:52:28;27.60;69.50
53926;DHT22;39836;52.754;6.866;2023-06-22T11:54:53;27.70;69.60
53926;DHT22;39836;52.754;6.866;2023-06-22T11:57:19;27.70;69.60
53926;DHT22;39836;52.754;6.866;2023-06-22T11:59:45;27.80;69.60
53926;DHT22;39836;52.754;6.866;2023-06-22T12:02:10;27.90;69.60
53926;DHT22;39836;52.754;6.866;2023-06-22T12:04:36;27.90;69.50
53926;DHT22;39836;52.754;6.866;2023-06-22T12:07:02;27.90;69.50
53926;DHT22;39836;52.754;6.866;2023-06-22T12:09:28;27.90;69.60
53926;DHT22;39836;52.754;6.866;2023-06-22T12:11:53;27.80;69.50
53926;DHT22;39836;52.754;6.866;2023-06-22T12:14:19;27.90;69.60
53926;DHT22;39836;52.754;6.866;2023-06-22T12:16:44;27.90;69.60
53926;DHT22;39836;52.754;6.866;2023-06-22T12:19:11;27.90;69.30
53926;DHT22;39836;52.754;6.866;2023-06-22T12:21:37;27.90;69.30
53926;DHT22;39836;52.754;6.866;2023-06-22T12:24:03;27.90;69.40
53926;DHT22;39836;52.754;6.866;2023-06-22T12:26:29;27.90;69.60
53926;DHT22;39836;52.754;6.866;2023-06-22T12:28:54;27.90;69.50
53926;DHT22;39836;52.754;6.866;2023-06-22T12:31:20;27.90;69.40
53926;DHT22;39836;52.754;6.866;2023-06-22T12:33:46;27.90;69.50
53926;DHT22;39836;52.754;6.866;2023-06-22T12:36:11;27.90;69.30
53926;DHT22;39836;52.754;6.866;2023-06-22T12:38:37;27.80;69.40
53926;DHT22;39836;52.754;6.866;2023-06-22T12:41:02;27.70;69.20
53926;DHT22;39836;52.754;6.866;2023-06-22T12:43:28;27.60;69.00
53926;DHT22;39836;52.754;6.866;2023-06-22T12:45:54;27.50;69.20
53926;DHT22;39836;52.754;6.866;2023-06-22T12:48:20;27.40;69.10
53926;DHT22;39836;52.754;6.866;2023-06-22T12:50:46;27.40;69.30
53926;DHT22;39836;52.754;6.866;2023-06-22T12:53:13;27.30;68.80
53926;DHT22;39836;52.754;6.866;2023-06-22T12:55:38;27.10;68.80
53926;DHT22;39836;52.754;6.866;2023-06-22T12:58:04;27.00;68.80
53926;DHT22;39836;52.754;6.866;2023-06-22T13:00:30;26.80;68.60
53926;DHT22;39836;52.754;6.866;2023-06-22T13:02:55;26.60;68.50
53926;DHT22;39836;52.754;6.866;2023-06-22T13:05:21;26.50;68.50
53926;DHT22;39836;52.754;6.866;2023-06-22T13:07:47;26.40;68.60
53926;DHT22;39836;52.754;6.866;2023-06-22T13:10:12;26.30;68.60
53926;DHT22;39836;52.754;6.866;2023-06-22T13:12:38;26.20;68.70
53926;DHT22;39836;52.754;6.866;2023-06-22T13:15:04;26.10;68.80
53926;DHT22;39836;52.754;6.866;2023-06-22T13:17:30;26.10;68.80
53926;DHT22;39836;52.754;6.866;2023-06-22T13:19:56;26.10;68.90
53926;DHT22;39836;52.754;6.866;2023-06-22T13:24:53;26.10;69.00
53926;DHT22;39836;52.754;6.866;2023-06-22T13:27:18;26.10;69.00
53926;DHT22;39836;52.754;6.866;2023-06-22T13:29:44;26.10;69.00
53926;DHT22;39836;52.754;6.866;2023-06-22T13:32:10;26.00;69.00
53926;DHT22;39836;52.754;6.866;2023-06-22T13:34:35;26.10;69.10
53926;DHT22;39836;52.754;6.866;2023-06-22T13:37:01;26.10;69.10
53926;DHT22;39836;52.754;6.866;2023-06-22T13:39:27;26.10;69.00
53926;DHT22;39836;52.754;6.866;2023-06-22T13:41:52;26.10;68.90
53926;DHT22;39836;52.754;6.866;2023-06-22T13:44:18;26.10;68.80
53926;DHT22;39836;52.754;6.866;2023-06-22T13:46:44;26.10;68.90
53926;DHT22;39836;52.754;6.866;2023-06-22T13:49:09;26.10;68.90
53926;DHT22;39836;52.754;6.866;2023-06-22T13:51:36;26.10;69.00
53926;DHT22;39836;52.754;6.866;2023-06-22T13:54:02;26.10;69.10
53926;DHT22;39836;52.754;6.866;2023-06-22T13:56:27;26.10;69.20
53926;DHT22;39836;52.754;6.866;2023-06-22T13:58:53;26.10;69.40
53926;DHT22;39836;52.754;6.866;2023-06-22T14:01:19;26.00;69.60
53926;DHT22;39836;52.754;6.866;2023-06-22T14:03:44;26.00;69.90
53926;DHT22;39836;52.754;6.866;2023-06-22T14:06:12;25.90;70.10
53926;DHT22;39836;52.754;6.866;2023-06-22T14:08:38;25.90;69.60
53926;DHT22;39836;52.754;6.866;2023-06-22T14:11:03;25.90;69.80
53926;DHT22;39836;52.754;6.866;2023-06-22T14:13:29;25.90;70.00
53926;DHT22;39836;52.754;6.866;2023-06-22T14:15:55;26.00;70.10
53926;DHT22;39836;52.754;6.866;2023-06-22T14:18:21;26.00;69.80
53926;DHT22;39836;52.754;6.866;2023-06-22T14:20:48;25.90;69.60
53926;DHT22;39836;52.754;6.866;2023-06-22T14:23:14;25.90;69.60
53926;DHT22;39836;52.754;6.866;2023-06-22T14:25:40;25.90;69.70
53926;DHT22;39836;52.754;6.866;2023-06-22T14:28:06;25.90;69.80
53926;DHT22;39836;52.754;6.866;2023-06-22T14:30:31;25.90;70.00
53926;DHT22;39836;52.754;6.866;2023-06-22T14:32:57;25.90;70.00
53926;DHT22;39836;52.754;6.866;2023-06-22T14:35:23;26.00;70.20
53926;DHT22;39836;52.754;6.866;2023-06-22T14:37:50;25.90;70.20
53926;DHT22;39836;52.754;6.866;2023-06-22T14:40:15;25.90;70.50
53926;DHT22;39836;52.754;6.866;2023-06-22T14:42:41;25.90;70.70
53926;DHT22;39836;52.754;6.866;2023-06-22T14:45:07;25.80;70.60
53926;DHT22;39836;52.754;6.866;2023-06-22T14:47:33;25.90;70.60
53926;DHT22;39836;52.754;6.866;2023-06-22T14:49:59;25.70;70.70
53926;DHT22;39836;52.754;6.866;2023-06-22T14:52:26;25.60;70.60
53926;DHT22;39836;52.754;6.866;2023-06-22T14:54:52;25.60;70.70
53926;DHT22;39836;52.754;6.866;2023-06-22T14:57:18;25.50;70.80
53926;DHT22;39836;52.754;6.866;2023-06-22T14:59:46;25.50;70.90
53926;DHT22;39836;52.754;6.866;2023-06-22T15:02:12;25.40;70.80
53926;DHT22;39836;52.754;6.866;2023-06-22T15:04:38;25.30;70.90
53926;DHT22;39836;52.754;6.866;2023-06-22T15:07:04;25.20;71.00
53926;DHT22;39836;52.754;6.866;2023-06-22T15:09:30;25.20;71.00
53926;DHT22;39836;52.754;6.866;2023-06-22T15:11:56;25.20;71.10
53926;DHT22;39836;52.754;6.866;2023-06-22T15:14:23;25.20;71.30
53926;DHT22;39836;52.754;6.866;2023-06-22T15:16:50;25.10;71.50
53926;DHT22;39836;52.754;6.866;2023-06-22T15:19:15;25.00;71.80
53926;DHT22;39836;52.754;6.866;2023-06-22T15:21:41;25.00;71.90
53926;DHT22;39836;52.754;6.866;2023-06-22T15:24:07;24.80;72.20
53926;DHT22;39836;52.754;6.866;2023-06-22T15:26:33;24.70;72.50
53926;DHT22;39836;52.754;6.866;2023-06-22T15:28:58;24.60;72.90
53926;DHT22;39836;52.754;6.866;2023-06-22T15:31:24;24.40;73.30
53926;DHT22;39836;52.754;6.866;2023-06-22T15:33:50;24.20;73.70
53926;DHT22;39836;52.754;6.866;2023-06-22T15:36:15;24.10;74.20
53926;DHT22;39836;52.754;6.866;2023-06-22T15:38:41;24.00;74.70
53926;DHT22;39836;52.754;6.866;2023-06-22T15:41:06;23.80;74.90
53926;DHT22;39836;52.754;6.866;2023-06-22T15:43:32;23.80;75.20
53926;DHT22;39836;52.754;6.866;2023-06-22T15:45:58;23.70;75.40
53926;DHT22;39836;52.754;6.866;2023-06-22T15:48:24;23.60;75.50
53926;DHT22;39836;52.754;6.866;2023-06-22T15:50:50;23.50;75.60
53926;DHT22;39836;52.754;6.866;2023-06-22T15:53:15;23.40;75.60
53926;DHT22;39836;52.754;6.866;2023-06-22T15:55:41;23.20;75.70
53926;DHT22;39836;52.754;6.866;2023-06-22T15:58:07;23.10;75.80
53926;DHT22;39836;52.754;6.866;2023-06-22T16:00:34;23.10;75.80
53926;DHT22;39836;52.754;6.866;2023-06-22T16:03:01;22.90;75.80
53926;DHT22;39836;52.754;6.866;2023-06-22T16:05:27;22.90;75.90
53926;DHT22;39836;52.754;6.866;2023-06-22T16:07:55;22.80;75.90
53926;DHT22;39836;52.754;6.866;2023-06-22T16:10:21;22.70;75.90
53926;DHT22;39836;52.754;6.866;2023-06-22T16:12:46;22.70;76.10
53926;DHT22;39836;52.754;6.866;2023-06-22T16:15:14;22.60;76.00
53926;DHT22;39836;52.754;6.866;2023-06-22T16:17:39;22.60;76.10
53926;DHT22;39836;52.754;6.866;2023-06-22T16:20:06;22.50;76.10
53926;DHT22;39836;52.754;6.866;2023-06-22T16:22:33;22.50;76.40
53926;DHT22;39836;52.754;6.866;2023-06-22T16:24:59;22.40;76.40
53926;DHT22;39836;52.754;6.866;2023-06-22T16:27:24;22.40;76.50
53926;DHT22;39836;52.754;6.866;2023-06-22T16:29:50;22.30;76.60
53926;DHT22;39836;52.754;6.866;2023-06-22T16:32:16;22.20;76.60
53926;DHT22;39836;52.754;6.866;2023-06-22T16:34:43;22.10;76.50
53926;DHT22;39836;52.754;6.866;2023-06-22T16:37:11;22.10;76.40
53926;DHT22;39836;52.754;6.866;2023-06-22T16:39:37;22.00;76.40
53926;DHT22;39836;52.754;6.866;2023-06-22T16:42:03;21.90;76.60
53926;DHT22;39836;52.754;6.866;2023-06-22T16:44:29;21.80;76.70
53926;DHT22;39836;52.754;6.866;2023-06-22T16:46:55;21.70;77.20
53926;DHT22;39836;52.754;6.866;2023-06-22T16:49:21;21.60;77.50
53926;DHT22;39836;52.754;6.866;2023-06-22T16:51:46;21.50;77.80
53926;DHT22;39836;52.754;6.866;2023-06-22T16:54:12;21.40;78.10
53926;DHT22;39836;52.754;6.866;2023-06-22T16:56:39;21.40;78.50
53926;DHT22;39836;52.754;6.866;2023-06-22T16:59:05;21.20;78.70
53926;DHT22;39836;52.754;6.866;2023-06-22T17:01:51;21.10;78.80
